createdAt,value
2018-07-11T00:00:57.414Z,99.90
2018-07-11T00:03:37.037Z,99.90
2018-07-11T00:06:05.519Z,99.90
2018-07-11T00:08:33.949Z,99.90
2018-07-11T00:11:02.736Z,99.90
2018-07-11T00:13:31.158Z,99.90
2018-07-11T00:15:59.686Z,99.90
2018-07-11T00:18:28.181Z,99.90
2018-07-11T00:20:56.761Z,99.90
2018-07-11T00:23:25.228Z,99.90
2018-07-11T00:25:53.713Z,99.90
2018-07-11T00:28:22.211Z,99.90
2018-07-11T00:30:50.740Z,99.90
2018-07-11T00:33:19.374Z,99.90
2018-07-11T00:35:48.514Z,99.90
2018-07-11T00:38:17.007Z,99.90
2018-07-11T00:40:45.552Z,99.90
2018-07-11T00:43:14.097Z,99.90
2018-07-11T00:48:10.854Z,99.90
2018-07-11T00:50:39.316Z,99.90
2018-07-11T00:53:07.940Z,99.90
2018-07-11T00:55:37.159Z,99.90
2018-07-11T00:58:13.489Z,99.90
2018-07-11T01:00:42.005Z,99.90
2018-07-11T01:03:10.529Z,99.90
2018-07-11T01:05:39.045Z,99.90
2018-07-11T01:08:07.592Z,99.90
2018-07-11T01:10:36.154Z,99.90
2018-07-11T01:13:04.949Z,99.90
2018-07-11T01:15:33.474Z,99.90
2018-07-11T01:18:07.281Z,99.90
2018-07-11T01:20:35.801Z,99.90
2018-07-11T01:23:04.269Z,99.90
2018-07-11T01:25:32.708Z,99.90
2018-07-11T01:28:01.143Z,99.90
2018-07-11T01:30:29.676Z,99.90
2018-07-11T01:32:58.795Z,99.90
2018-07-11T01:35:27.351Z,99.90
2018-07-11T01:37:55.866Z,99.90
2018-07-11T01:40:24.373Z,99.90
2018-07-11T01:42:52.829Z,99.90
2018-07-11T01:45:21.604Z,99.90
2018-07-11T01:47:50.059Z,99.90
2018-07-11T01:50:18.562Z,99.90
2018-07-11T01:52:55.851Z,99.90
2018-07-11T01:55:27.502Z,99.90
2018-07-11T01:57:59.846Z,99.90
2018-07-11T02:00:29.297Z,99.90
2018-07-11T02:02:58.334Z,99.90
2018-07-11T02:05:27.791Z,99.90
2018-07-11T02:07:56.623Z,99.90
2018-07-11T02:10:25.397Z,99.90
2018-07-11T02:15:22.023Z,99.90
2018-07-11T02:17:50.927Z,99.90
2018-07-11T02:20:19.503Z,99.90
2018-07-11T02:22:51.626Z,99.90
2018-07-11T02:25:20.758Z,99.90
2018-07-11T02:30:17.920Z,99.90
2018-07-11T02:32:46.455Z,99.90
2018-07-11T02:35:14.945Z,99.90
2018-07-11T02:37:43.372Z,99.90
2018-07-11T02:40:11.869Z,99.90
2018-07-11T02:42:40.416Z,99.90
2018-07-11T02:45:08.873Z,99.90
2018-07-11T02:47:42.834Z,99.90
2018-07-11T02:50:11.716Z,99.90
2018-07-11T02:52:40.469Z,99.90
2018-07-11T02:55:09.032Z,99.90
2018-07-11T02:57:37.502Z,99.90
2018-07-11T03:00:06.085Z,99.90
2018-07-11T03:02:34.560Z,99.90
2018-07-11T03:05:03.096Z,99.90
2018-07-11T03:07:31.638Z,99.90
2018-07-11T03:10:02.951Z,99.90
2018-07-11T03:12:32.332Z,99.90
2018-07-11T03:15:01.099Z,99.90
2018-07-11T03:17:29.717Z,99.90
2018-07-11T03:19:58.214Z,99.90
2018-07-11T03:22:26.734Z,99.90
2018-07-11T03:24:55.445Z,99.90
2018-07-11T03:27:23.932Z,99.90
2018-07-11T03:29:52.331Z,99.90
2018-07-11T03:32:20.830Z,99.90
2018-07-11T03:34:49.277Z,99.90
2018-07-11T03:37:17.772Z,99.90
2018-07-11T03:39:52.819Z,99.90
2018-07-11T03:42:21.342Z,99.90
2018-07-11T03:44:49.817Z,99.90
2018-07-11T03:47:18.236Z,99.90
2018-07-11T03:49:46.614Z,99.90
2018-07-11T03:52:15.019Z,99.90
2018-07-11T03:54:43.497Z,99.90
2018-07-11T03:57:11.992Z,99.90
2018-07-11T03:59:40.488Z,99.90
2018-07-11T04:02:08.982Z,99.90
2018-07-11T04:04:37.464Z,99.90
2018-07-11T04:07:06.031Z,99.90
2018-07-11T04:09:34.488Z,99.90
2018-07-11T04:12:02.909Z,99.90
2018-07-11T04:14:31.388Z,99.90
2018-07-11T04:16:59.829Z,99.90
2018-07-11T04:19:28.294Z,99.90
2018-07-11T04:21:56.728Z,99.90
2018-07-11T04:24:25.386Z,99.90
2018-07-11T04:26:53.813Z,99.90
2018-07-11T04:29:22.273Z,99.90
2018-07-11T04:31:50.728Z,99.90
2018-07-11T04:34:19.188Z,99.90
2018-07-11T04:36:47.593Z,99.90
2018-07-11T04:39:16.025Z,99.90
2018-07-11T04:41:44.372Z,99.90
2018-07-11T04:44:12.836Z,99.90
2018-07-11T04:46:41.227Z,99.90
2018-07-11T04:49:09.666Z,99.90
2018-07-11T04:51:38.230Z,99.90
2018-07-11T04:54:06.624Z,99.90
2018-07-11T04:56:35.032Z,99.90
2018-07-11T04:59:03.498Z,99.90
2018-07-11T05:01:31.969Z,99.90
2018-07-11T05:04:00.635Z,99.90
2018-07-11T05:06:28.991Z,99.90
2018-07-11T05:08:57.427Z,99.90
2018-07-11T05:11:26.161Z,99.90
2018-07-11T05:13:54.544Z,99.90
2018-07-11T05:18:51.051Z,99.90
2018-07-11T05:21:19.429Z,99.90
2018-07-11T05:23:47.800Z,99.90
2018-07-11T05:26:16.150Z,99.90
2018-07-11T05:28:44.864Z,99.90
2018-07-11T05:31:13.229Z,99.90
2018-07-11T05:33:41.635Z,99.90
2018-07-11T05:36:10.065Z,99.90
2018-07-11T05:38:38.428Z,99.90
2018-07-11T05:41:06.943Z,99.90
2018-07-11T05:43:35.316Z,99.90
2018-07-11T05:46:03.746Z,99.90
2018-07-11T05:48:32.624Z,99.90
2018-07-11T05:51:01.190Z,97.50
2018-07-11T05:53:29.629Z,98.30
2018-07-11T05:55:58.048Z,96.30
2018-07-11T05:58:26.520Z,94.70
2018-07-11T06:00:54.876Z,95.40
2018-07-11T06:03:23.243Z,92.10
2018-07-11T06:05:51.722Z,91.30
2018-07-11T06:08:20.095Z,91.00
2018-07-11T06:10:48.455Z,90.80
2018-07-11T06:13:16.819Z,86.80
2018-07-11T06:15:45.211Z,84.00
2018-07-11T06:18:13.628Z,84.20
2018-07-11T06:20:42.067Z,83.70
2018-07-11T06:23:10.421Z,81.80
2018-07-11T06:25:38.844Z,80.20
2018-07-11T06:28:07.373Z,81.20
2018-07-11T06:30:35.692Z,79.20
2018-07-11T06:33:04.095Z,80.60
2018-07-11T06:35:32.466Z,81.00
2018-07-11T06:38:01.068Z,80.40
2018-07-11T06:40:29.459Z,76.30
2018-07-11T06:42:57.839Z,75.10
2018-07-11T06:45:26.624Z,75.40
2018-07-11T06:47:55.007Z,74.90
2018-07-11T06:50:23.625Z,75.60
2018-07-11T06:52:52.085Z,75.50
2018-07-11T06:55:20.468Z,73.20
2018-07-11T06:57:48.805Z,71.00
2018-07-11T07:00:17.156Z,70.30
2018-07-11T07:02:45.504Z,68.90
2018-07-11T07:05:13.959Z,71.20
2018-07-11T07:07:42.304Z,70.80
2018-07-11T07:10:10.870Z,71.10
2018-07-11T07:12:39.219Z,73.30
2018-07-11T07:15:07.607Z,71.30
2018-07-11T07:17:36.111Z,66.50
2018-07-11T07:20:04.708Z,66.70
2018-07-11T07:22:33.431Z,67.20
2018-07-11T07:25:01.941Z,65.10
2018-07-11T07:27:30.471Z,68.90
2018-07-11T07:29:58.987Z,65.90
2018-07-11T07:32:27.381Z,65.30
2018-07-11T07:34:55.823Z,64.50
2018-07-11T07:37:24.553Z,67.20
2018-07-11T07:39:56.072Z,64.20
2018-07-11T07:42:24.504Z,63.50
2018-07-11T07:44:53.079Z,61.90
2018-07-11T07:47:27.030Z,63.90
2018-07-11T07:49:55.588Z,63.80
2018-07-11T07:52:23.971Z,65.40
2018-07-11T07:54:52.500Z,64.20
2018-07-11T07:57:21.028Z,60.50
2018-07-11T07:59:49.428Z,61.80
2018-07-11T08:02:18.094Z,60.50
2018-07-11T08:04:47.317Z,59.40
2018-07-11T08:07:15.742Z,61.00
2018-07-11T08:09:44.190Z,58.70
2018-07-11T08:12:12.675Z,58.30
2018-07-11T08:14:41.060Z,56.10
2018-07-11T08:17:09.523Z,56.00
2018-07-11T08:19:37.879Z,55.00
2018-07-11T08:22:17.879Z,58.90
2018-07-11T08:24:57.560Z,57.80
2018-07-11T08:27:44.223Z,60.90
2018-07-11T08:31:22.854Z,59.60
2018-07-11T08:34:15.923Z,59.10
2018-07-11T08:39:00.919Z,58.90
2018-07-11T08:41:40.819Z,61.70
2018-07-11T08:44:27.344Z,65.20
2018-07-11T08:49:15.069Z,63.70
2018-07-11T08:52:52.448Z,60.40
2018-07-11T08:55:36.697Z,63.70
2018-07-11T09:00:24.474Z,65.90
2018-07-11T09:05:12.284Z,63.00
2018-07-11T09:08:52.798Z,61.30
2018-07-11T09:11:35.973Z,63.80
2018-07-11T09:16:19.985Z,59.70
2018-07-11T09:19:16.878Z,58.40
2018-07-11T09:24:02.851Z,56.00
2018-07-11T09:26:31.323Z,59.60
2018-07-11T09:28:59.908Z,61.70
2018-07-11T09:31:28.379Z,57.70
2018-07-11T09:33:56.811Z,55.70
2018-07-11T09:36:25.197Z,60.10
2018-07-11T09:38:54.147Z,62.30
2018-07-11T09:41:22.777Z,61.00
2018-07-11T09:43:51.204Z,62.30
2018-07-11T09:46:19.599Z,59.50
2018-07-11T09:48:48.012Z,59.10
2018-07-11T09:51:16.430Z,62.00
2018-07-11T09:53:44.892Z,64.10
2018-07-11T09:56:13.328Z,65.20
2018-07-11T09:58:42.063Z,63.70
2018-07-11T10:01:15.797Z,61.30
2018-07-11T10:03:44.316Z,63.70
2018-07-11T10:06:12.756Z,62.80
2018-07-11T10:08:41.239Z,63.10
2018-07-11T10:11:09.747Z,64.00
2018-07-11T10:13:38.214Z,66.80
2018-07-11T10:16:06.596Z,66.70
2018-07-11T10:18:34.968Z,67.00
2018-07-11T10:21:03.430Z,68.80
2018-07-11T10:23:31.867Z,68.30
2018-07-11T10:26:00.273Z,67.50
2018-07-11T10:28:28.637Z,68.60
2018-07-11T10:30:57.053Z,68.00
2018-07-11T10:33:25.678Z,67.60
2018-07-11T10:35:54.228Z,66.70
2018-07-11T10:38:22.681Z,66.80
2018-07-11T10:40:51.268Z,67.80
2018-07-11T10:43:19.651Z,68.30
2018-07-11T10:45:48.063Z,68.90
2018-07-11T10:48:16.504Z,67.00
2018-07-11T10:50:44.895Z,67.10
2018-07-11T10:53:13.258Z,67.00
2018-07-11T10:55:41.694Z,68.10
2018-07-11T10:58:10.175Z,65.40
2018-07-11T11:00:38.555Z,66.10
2018-07-11T11:03:06.953Z,65.20
2018-07-11T11:05:35.336Z,63.60
2018-07-11T11:08:03.820Z,65.30
2018-07-11T11:10:32.240Z,67.90
2018-07-11T11:13:00.624Z,67.90
2018-07-11T11:15:29.046Z,66.90
2018-07-11T11:17:57.442Z,65.70
2018-07-11T11:20:26.076Z,66.60
2018-07-11T11:22:54.502Z,66.80
2018-07-11T11:25:22.930Z,68.20
2018-07-11T11:27:51.421Z,68.40
2018-07-11T11:30:19.904Z,66.60
2018-07-11T11:32:48.753Z,67.10
2018-07-11T11:35:17.107Z,65.90
2018-07-11T11:37:45.595Z,67.00
2018-07-11T11:40:13.962Z,65.20
2018-07-11T11:42:42.567Z,64.80
2018-07-11T11:45:11.196Z,64.20
2018-07-11T11:47:39.911Z,64.70
2018-07-11T11:50:08.580Z,64.60
2018-07-11T11:52:37.315Z,65.90
2018-07-11T11:55:05.732Z,66.80
2018-07-11T12:02:30.699Z,70.30
2018-07-11T12:04:59.084Z,71.80
2018-07-11T12:07:27.760Z,73.30
2018-07-11T12:09:56.204Z,74.50
2018-07-11T12:12:24.754Z,75.80
2018-07-11T12:14:53.239Z,77.10
2018-07-11T12:17:21.760Z,78.40
2018-07-11T12:19:50.200Z,78.60
2018-07-11T12:22:21.257Z,77.40
2018-07-11T12:24:49.898Z,78.90
2018-07-11T12:27:18.620Z,78.40
2018-07-11T12:29:47.283Z,80.50
2018-07-11T12:32:15.863Z,80.30
2018-07-11T12:34:44.612Z,80.20
2018-07-11T12:37:13.856Z,79.40
2018-07-11T12:39:42.245Z,80.10
2018-07-11T12:42:10.834Z,79.50
2018-07-11T12:44:39.223Z,77.20
2018-07-11T12:47:13.163Z,77.60
2018-07-11T12:49:41.711Z,76.60
2018-07-11T12:52:10.112Z,76.00
2018-07-11T12:54:38.543Z,73.90
2018-07-11T12:57:07.805Z,73.50
2018-07-11T12:59:36.274Z,73.90
2018-07-11T13:02:04.759Z,75.10
2018-07-11T13:04:33.186Z,74.40
2018-07-11T13:09:30.443Z,74.40
2018-07-11T13:11:58.859Z,75.00
2018-07-11T13:14:27.340Z,73.80
2018-07-11T13:16:55.844Z,75.60
2018-07-11T13:19:24.479Z,75.30
2018-07-11T13:21:52.968Z,75.50
2018-07-11T13:24:21.398Z,76.40
2018-07-11T13:26:49.947Z,77.00
2018-07-11T13:29:18.399Z,77.20
2018-07-11T13:31:46.890Z,77.50
2018-07-11T13:34:15.847Z,78.90
2018-07-11T13:36:44.434Z,78.40
2018-07-11T13:39:17.356Z,78.00
2018-07-11T13:41:46.825Z,78.70
2018-07-11T13:44:15.410Z,79.60
2018-07-11T13:46:44.403Z,80.80
2018-07-11T13:49:13.455Z,81.40
2018-07-11T13:51:41.977Z,82.00
2018-07-11T13:54:11.131Z,82.60
2018-07-11T13:56:39.552Z,84.00
2018-07-11T13:59:08.106Z,85.30
2018-07-11T14:01:36.613Z,86.40
2018-07-11T14:04:05.045Z,86.00
2018-07-11T14:06:33.508Z,87.10
2018-07-11T14:09:01.976Z,87.30
2018-07-11T14:11:30.380Z,88.10
2018-07-11T14:13:58.904Z,88.60
2018-07-11T14:16:27.296Z,89.70
2018-07-11T14:18:55.651Z,90.40
2018-07-11T14:21:24.036Z,90.80
2018-07-11T14:23:52.809Z,91.30
2018-07-11T14:26:21.551Z,91.80
2018-07-11T14:28:51.454Z,92.20
2018-07-11T14:31:34.862Z,93.30
2018-07-11T14:34:06.470Z,94.70
2018-07-11T14:36:35.399Z,95.80
2018-07-11T14:39:05.242Z,96.10
2018-07-11T14:41:34.108Z,96.30
2018-07-11T14:44:02.648Z,96.90
2018-07-11T14:46:31.661Z,97.10
2018-07-11T14:49:00.571Z,97.50
2018-07-11T14:51:29.314Z,97.90
2018-07-11T14:53:58.290Z,99.00
2018-07-11T14:56:26.728Z,99.90
2018-07-11T14:58:56.779Z,99.90
2018-07-11T15:01:25.357Z,99.90
2018-07-11T15:03:54.256Z,99.90
2018-07-11T15:06:23.473Z,99.90
2018-07-11T15:08:52.768Z,99.90
2018-07-11T15:11:21.596Z,99.90
2018-07-11T15:13:50.120Z,99.90
2018-07-11T15:16:18.776Z,99.90
2018-07-11T15:18:47.503Z,99.90
2018-07-11T15:21:16.428Z,99.90
2018-07-11T15:23:45.080Z,99.90
2018-07-11T15:26:14.095Z,99.90
2018-07-11T15:28:42.981Z,99.90
2018-07-11T15:31:11.500Z,99.90
2018-07-11T15:33:39.999Z,99.90
2018-07-11T15:36:08.906Z,99.90
2018-07-11T15:38:38.004Z,99.90
2018-07-11T15:41:06.773Z,99.90
2018-07-11T15:43:35.213Z,99.90
2018-07-11T15:46:03.981Z,99.90
2018-07-11T15:48:32.651Z,99.90
2018-07-11T15:51:01.237Z,99.90
2018-07-11T15:53:30.116Z,99.90
2018-07-11T15:55:59.695Z,99.90
2018-07-11T15:58:28.712Z,99.90
2018-07-11T16:01:04.691Z,99.90
2018-07-11T16:03:35.839Z,99.90
2018-07-11T16:06:04.728Z,99.90
2018-07-11T16:08:33.177Z,99.90
2018-07-11T16:11:03.909Z,99.90
2018-07-11T16:13:32.803Z,99.90
2018-07-11T16:16:01.296Z,99.90
2018-07-11T16:18:29.700Z,99.90
2018-07-11T16:20:58.068Z,99.90
2018-07-11T16:23:26.476Z,99.90
2018-07-11T16:25:55.173Z,99.90
2018-07-11T16:28:23.548Z,99.90
2018-07-11T16:30:52.133Z,99.90
2018-07-11T16:33:21.228Z,99.90
2018-07-11T16:35:49.811Z,99.90
2018-07-11T16:38:18.252Z,99.90
2018-07-11T16:40:46.843Z,99.90
2018-07-11T16:43:15.459Z,99.90
2018-07-11T16:45:44.105Z,99.90
2018-07-11T16:48:12.573Z,99.90
2018-07-11T16:50:41.368Z,99.90
2018-07-11T16:53:09.880Z,99.90
2018-07-11T16:55:38.570Z,99.90
2018-07-11T16:58:07.075Z,99.90
2018-07-11T17:00:42.349Z,99.90
2018-07-11T17:03:13.345Z,99.90
2018-07-11T17:05:49.457Z,99.90
2018-07-11T17:08:34.294Z,99.90
2018-07-11T17:11:35.889Z,99.90
2018-07-11T17:14:05.352Z,99.90
2018-07-11T17:17:06.035Z,99.90
2018-07-11T17:20:07.813Z,99.90
2018-07-11T17:22:50.237Z,99.90
2018-07-11T17:25:20.259Z,99.90
2018-07-11T17:27:52.904Z,99.90
2018-07-11T17:30:21.440Z,99.90
2018-07-11T17:32:49.927Z,99.90
2018-07-11T17:35:18.584Z,99.90
2018-07-11T17:37:47.676Z,99.90
2018-07-11T17:40:16.215Z,99.90
2018-07-11T17:42:45.171Z,99.90
2018-07-11T17:45:19.577Z,99.90
2018-07-11T17:48:02.716Z,99.90
2018-07-11T17:50:31.132Z,99.90
2018-07-11T17:53:08.336Z,99.90
2018-07-11T17:56:13.831Z,99.90
2018-07-11T17:58:53.197Z,99.90
2018-07-11T18:01:28.988Z,99.90
2018-07-11T18:04:01.518Z,99.90
2018-07-11T18:06:36.994Z,99.90
2018-07-11T18:09:07.667Z,99.90
2018-07-11T18:11:54.796Z,99.90
2018-07-11T18:15:08.050Z,99.90
2018-07-11T18:17:48.584Z,99.90
2018-07-11T18:20:28.463Z,99.90
2018-07-11T18:23:17.711Z,99.90
2018-07-11T18:28:21.665Z,99.90
2018-07-11T18:31:00.873Z,99.90
2018-07-11T18:33:43.664Z,99.90
2018-07-11T18:36:26.656Z,99.90
2018-07-11T18:39:13.375Z,99.90
2018-07-11T18:42:23.483Z,99.90
2018-07-11T18:46:10.462Z,99.90
2018-07-11T18:48:52.472Z,99.90
2018-07-11T18:51:32.841Z,99.90
2018-07-11T18:54:08.645Z,99.90
2018-07-11T18:56:48.799Z,99.90
2018-07-11T18:59:28.280Z,99.90
2018-07-11T19:03:06.043Z,99.90
2018-07-11T19:06:50.333Z,99.90
2018-07-11T19:09:25.108Z,99.90
2018-07-11T19:11:56.094Z,99.90
2018-07-11T19:14:39.000Z,99.90
2018-07-11T19:19:21.637Z,99.90
2018-07-11T19:22:02.535Z,99.90
2018-07-11T19:24:37.880Z,99.90
2018-07-11T19:27:16.210Z,99.90
2018-07-11T19:30:56.517Z,99.90
2018-07-11T19:33:40.348Z,99.90
2018-07-11T19:36:20.182Z,99.90
2018-07-11T19:38:58.184Z,99.90
2018-07-11T19:42:35.962Z,99.90
2018-07-11T19:45:47.370Z,99.90
2018-07-11T19:48:57.096Z,99.90
2018-07-11T19:51:37.471Z,99.90
2018-07-11T19:54:18.402Z,99.90
2018-07-11T19:56:48.884Z,99.90
2018-07-11T19:59:17.404Z,99.90
2018-07-11T20:01:46.560Z,99.90
2018-07-11T20:04:15.272Z,99.90
2018-07-11T20:06:44.141Z,99.90
2018-07-11T20:09:13.456Z,99.90
2018-07-11T20:11:42.101Z,99.90
2018-07-11T20:14:10.592Z,99.90
2018-07-11T20:16:39.125Z,99.90
2018-07-11T20:19:07.773Z,99.90
2018-07-11T20:21:36.354Z,99.90
2018-07-11T20:24:04.909Z,99.90
2018-07-11T20:26:33.547Z,99.90
2018-07-11T20:29:02.047Z,99.90
2018-07-11T20:31:30.635Z,99.90
2018-07-11T20:33:59.051Z,99.90
2018-07-11T20:36:27.530Z,99.90
2018-07-11T20:38:56.311Z,99.90
2018-07-11T20:41:25.024Z,99.90
2018-07-11T20:43:53.475Z,99.90
2018-07-11T20:46:22.079Z,99.90
2018-07-11T20:48:50.631Z,99.90
2018-07-11T20:51:19.119Z,99.90
2018-07-11T20:53:47.595Z,99.90
2018-07-11T20:56:15.994Z,99.90
2018-07-11T20:58:55.722Z,99.90
2018-07-11T21:01:35.428Z,99.90
2018-07-11T21:04:44.394Z,99.90
2018-07-11T21:07:24.590Z,99.90
2018-07-11T21:10:06.173Z,99.90
2018-07-11T21:12:49.318Z,99.90
2018-07-11T21:19:06.200Z,99.90
2018-07-11T21:21:35.350Z,99.90
2018-07-11T21:24:04.585Z,99.90
2018-07-11T21:26:32.963Z,99.90
2018-07-11T21:29:01.349Z,99.90
2018-07-11T21:31:29.819Z,99.90
2018-07-11T21:33:58.263Z,99.90
2018-07-11T21:36:26.624Z,99.90
2018-07-11T21:38:55.013Z,99.90
2018-07-11T21:41:23.528Z,99.90
2018-07-11T21:43:52.131Z,99.90
2018-07-11T21:46:20.831Z,99.90
2018-07-11T21:48:49.198Z,99.90
2018-07-11T21:51:17.653Z,99.90
2018-07-11T21:53:46.044Z,99.90
2018-07-11T21:56:14.403Z,99.90
2018-07-11T21:58:42.811Z,99.90
2018-07-11T22:01:12.195Z,99.90
2018-07-11T22:03:40.676Z,99.90
2018-07-11T22:06:09.083Z,99.90
2018-07-11T22:08:37.523Z,99.90
2018-07-11T22:11:05.976Z,99.90
2018-07-11T22:13:34.350Z,99.90
2018-07-11T22:16:02.735Z,99.90
2018-07-11T22:18:38.722Z,99.90
2018-07-11T22:21:07.015Z,99.90
2018-07-11T22:23:34.300Z,99.90
2018-07-11T22:28:29.473Z,99.90
2018-07-11T22:30:56.771Z,99.90
2018-07-11T22:33:24.213Z,99.90
2018-07-11T22:35:51.530Z,99.90
2018-07-11T22:38:18.846Z,99.90
2018-07-11T22:40:46.360Z,99.90
2018-07-11T22:43:13.720Z,99.90
2018-07-11T22:45:41.019Z,99.90
2018-07-11T22:48:08.319Z,99.90
2018-07-11T22:50:35.610Z,99.90
2018-07-11T22:53:02.908Z,99.90
2018-07-11T22:55:30.209Z,99.90
2018-07-11T22:57:57.535Z,99.90
2018-07-11T23:00:24.821Z,99.90
2018-07-11T23:02:52.129Z,99.90
2018-07-11T23:05:19.423Z,99.90
2018-07-11T23:07:46.752Z,99.90
2018-07-11T23:10:14.066Z,99.90
2018-07-11T23:12:41.375Z,99.90
2018-07-11T23:15:08.665Z,99.90
2018-07-11T23:17:35.979Z,99.90
2018-07-11T23:20:03.312Z,99.90
2018-07-11T23:22:30.618Z,99.90
2018-07-11T23:24:57.913Z,99.90
2018-07-11T23:27:25.247Z,99.90
2018-07-11T23:29:52.538Z,99.90
2018-07-11T23:32:19.869Z,99.90
2018-07-11T23:34:47.176Z,99.90
2018-07-11T23:37:14.478Z,99.90
2018-07-11T23:39:41.780Z,99.90
2018-07-11T23:42:09.112Z,99.90
2018-07-11T23:44:36.395Z,99.90
2018-07-11T23:47:03.701Z,99.90
2018-07-11T23:49:31.025Z,99.90
2018-07-11T23:51:58.351Z,99.90
2018-07-11T23:54:25.666Z,99.90
2018-07-11T23:56:52.987Z,99.90
2018-07-11T23:59:20.292Z,99.90
